sensor_id;sensor_type;location;lat;lon;timestamp;P1;durP1;ratioP1;P2;durP2;ratioP2
8656;SDS011;4366;50.764;7.184;2022-08-01T00:02:12;1.00;;;0.93;;
8656;SDS011;4366;50.764;7.184;2022-08-01T00:07:14;1.00;;;1.00;;
8656;SDS011;4366;50.764;7.184;2022-08-01T00:12:16;1.23;;;1.13;;
8656;SDS011;4366;50.764;7.184;2022-08-01T00:17:17;1.10;;;1.08;;
8656;SDS011;4366;50.764;7.184;2022-08-01T00:22:19;0.95;;;0.95;;
8656;SDS011;4366;50.764;7.184;2022-08-01T00:27:20;0.90;;;0.90;;
8656;SDS011;4366;50.764;7.184;2022-08-01T00:32:23;1.13;;;0.90;;
8656;SDS011;4366;50.764;7.184;2022-08-01T00:37:24;1.42;;;1.20;;
8656;SDS011;4366;50.764;7.184;2022-08-01T00:42:26;1.27;;;1.13;;
8656;SDS011;4366;50.764;7.184;2022-08-01T00:47:27;2.67;;;1.10;;
8656;SDS011;4366;50.764;7.184;2022-08-01T00:52:29;1.15;;;1.15;;
8656;SDS011;4366;50.764;7.184;2022-08-01T00:57:30;1.13;;;0.80;;
8656;SDS011;4366;50.764;7.184;2022-08-01T01:02:52;1.30;;;1.20;;
8656;SDS011;4366;50.764;7.184;2022-08-01T01:07:55;1.77;;;1.05;;
8656;SDS011;4366;50.764;7.184;2022-08-01T01:13:09;1.55;;;1.10;;
8656;SDS011;4366;50.764;7.184;2022-08-01T01:18:14;1.30;;;1.20;;
8656;SDS011;4366;50.764;7.184;2022-08-01T01:28:55;1.05;;;1.05;;
8656;SDS011;4366;50.764;7.184;2022-08-01T01:34:04;1.90;;;1.30;;
8656;SDS011;4366;50.764;7.184;2022-08-01T01:39:06;1.15;;;1.05;;
8656;SDS011;4366;50.764;7.184;2022-08-01T01:44:08;1.33;;;1.25;;
8656;SDS011;4366;50.764;7.184;2022-08-01T01:49:10;1.00;;;1.00;;
8656;SDS011;4366;50.764;7.184;2022-08-01T01:54:12;1.58;;;1.40;;
8656;SDS011;4366;50.764;7.184;2022-08-01T01:59:21;1.58;;;1.40;;
8656;SDS011;4366;50.764;7.184;2022-08-01T02:04:26;1.27;;;1.17;;
8656;SDS011;4366;50.764;7.184;2022-08-01T02:09:28;1.77;;;1.33;;
8656;SDS011;4366;50.764;7.184;2022-08-01T02:14:30;1.40;;;1.35;;
8656;SDS011;4366;50.764;7.184;2022-08-01T02:19:34;1.57;;;1.47;;
8656;SDS011;4366;50.764;7.184;2022-08-01T02:24:43;1.30;;;1.20;;
8656;SDS011;4366;50.764;7.184;2022-08-01T02:29:52;3.80;;;1.23;;
8656;SDS011;4366;50.764;7.184;2022-08-01T02:34:56;1.23;;;1.17;;
8656;SDS011;4366;50.764;7.184;2022-08-01T02:39:58;1.40;;;1.30;;
8656;SDS011;4366;50.764;7.184;2022-08-01T02:45:00;1.67;;;1.57;;
8656;SDS011;4366;50.764;7.184;2022-08-01T02:50:04;1.40;;;1.30;;
8656;SDS011;4366;50.764;7.184;2022-08-01T02:55:09;2.83;;;1.37;;
8656;SDS011;4366;50.764;7.184;2022-08-01T03:00:12;1.40;;;1.40;;
8656;SDS011;4366;50.764;7.184;2022-08-01T03:05:13;2.13;;;1.57;;
8656;SDS011;4366;50.764;7.184;2022-08-01T03:10:16;1.40;;;1.30;;
8656;SDS011;4366;50.764;7.184;2022-08-01T03:15:18;2.25;;;1.60;;
8656;SDS011;4366;50.764;7.184;2022-08-01T03:20:20;1.80;;;1.50;;
8656;SDS011;4366;50.764;7.184;2022-08-01T03:25:23;1.77;;;1.67;;
8656;SDS011;4366;50.764;7.184;2022-08-01T03:30:26;1.70;;;1.58;;
8656;SDS011;4366;50.764;7.184;2022-08-01T03:35:30;2.30;;;1.55;;
8656;SDS011;4366;50.764;7.184;2022-08-01T03:40:38;1.75;;;1.50;;
8656;SDS011;4366;50.764;7.184;2022-08-01T03:45:44;1.83;;;1.50;;
8656;SDS011;4366;50.764;7.184;2022-08-01T03:50:49;2.47;;;1.50;;
8656;SDS011;4366;50.764;7.184;2022-08-01T03:55:52;1.60;;;1.50;;
8656;SDS011;4366;50.764;7.184;2022-08-01T04:00:55;1.52;;;1.42;;
8656;SDS011;4366;50.764;7.184;2022-08-01T04:05:57;2.20;;;1.85;;
8656;SDS011;4366;50.764;7.184;2022-08-01T04:10:59;3.10;;;1.88;;
8656;SDS011;4366;50.764;7.184;2022-08-01T04:16:00;1.98;;;1.83;;
8656;SDS011;4366;50.764;7.184;2022-08-01T04:21:02;2.23;;;1.70;;
8656;SDS011;4366;50.764;7.184;2022-08-01T04:26:03;2.00;;;1.90;;
8656;SDS011;4366;50.764;7.184;2022-08-01T04:31:06;2.37;;;1.83;;
8656;SDS011;4366;50.764;7.184;2022-08-01T04:36:10;2.17;;;1.90;;
8656;SDS011;4366;50.764;7.184;2022-08-01T04:41:13;2.43;;;2.00;;
8656;SDS011;4366;50.764;7.184;2022-08-01T04:46:16;2.73;;;2.00;;
8656;SDS011;4366;50.764;7.184;2022-08-01T04:51:18;4.07;;;2.40;;
8656;SDS011;4366;50.764;7.184;2022-08-01T04:56:23;2.80;;;2.10;;
8656;SDS011;4366;50.764;7.184;2022-08-01T05:01:24;3.47;;;2.63;;
8656;SDS011;4366;50.764;7.184;2022-08-01T05:06:26;2.50;;;2.30;;
8656;SDS011;4366;50.764;7.184;2022-08-01T05:11:27;3.33;;;2.50;;
8656;SDS011;4366;50.764;7.184;2022-08-01T05:16:29;2.22;;;2.03;;
8656;SDS011;4366;50.764;7.184;2022-08-01T05:21:30;2.77;;;2.33;;
8656;SDS011;4366;50.764;7.184;2022-08-01T05:26:32;3.47;;;2.80;;
8656;SDS011;4366;50.764;7.184;2022-08-01T05:31:36;3.47;;;2.73;;
8656;SDS011;4366;50.764;7.184;2022-08-01T05:36:37;4.97;;;3.10;;
8656;SDS011;4366;50.764;7.184;2022-08-01T05:41:39;4.80;;;2.97;;
8656;SDS011;4366;50.764;7.184;2022-08-01T05:46:41;5.72;;;3.33;;
8656;SDS011;4366;50.764;7.184;2022-08-01T05:51:42;3.37;;;3.07;;
8656;SDS011;4366;50.764;7.184;2022-08-01T05:56:44;5.53;;;3.13;;
8656;SDS011;4366;50.764;7.184;2022-08-01T06:01:45;4.72;;;3.63;;
8656;SDS011;4366;50.764;7.184;2022-08-01T06:06:47;4.47;;;3.60;;
8656;SDS011;4366;50.764;7.184;2022-08-01T06:11:49;3.60;;;3.30;;
8656;SDS011;4366;50.764;7.184;2022-08-01T06:16:50;4.97;;;4.33;;
8656;SDS011;4366;50.764;7.184;2022-08-01T06:21:52;6.17;;;4.80;;
8656;SDS011;4366;50.764;7.184;2022-08-01T06:26:54;6.03;;;4.07;;
8656;SDS011;4366;50.764;7.184;2022-08-01T06:31:56;5.50;;;4.83;;
8656;SDS011;4366;50.764;7.184;2022-08-01T06:36:57;5.23;;;4.00;;
8656;SDS011;4366;50.764;7.184;2022-08-01T06:41:59;6.27;;;4.60;;
8656;SDS011;4366;50.764;7.184;2022-08-01T06:47:00;4.63;;;4.18;;
8656;SDS011;4366;50.764;7.184;2022-08-01T06:52:02;6.70;;;5.10;;
8656;SDS011;4366;50.764;7.184;2022-08-01T06:57:05;5.33;;;4.83;;
8656;SDS011;4366;50.764;7.184;2022-08-01T07:02:07;7.47;;;5.10;;
8656;SDS011;4366;50.764;7.184;2022-08-01T07:07:09;7.10;;;4.78;;
8656;SDS011;4366;50.764;7.184;2022-08-01T07:12:11;5.43;;;4.30;;
8656;SDS011;4366;50.764;7.184;2022-08-01T07:17:13;3.75;;;3.45;;
8656;SDS011;4366;50.764;7.184;2022-08-01T07:22:14;4.72;;;4.28;;
8656;SDS011;4366;50.764;7.184;2022-08-01T07:27:23;5.35;;;4.63;;
8656;SDS011;4366;50.764;7.184;2022-08-01T07:32:26;5.13;;;3.97;;
8656;SDS011;4366;50.764;7.184;2022-08-01T07:37:30;6.38;;;4.25;;
8656;SDS011;4366;50.764;7.184;2022-08-01T07:42:49;6.60;;;4.57;;
8656;SDS011;4366;50.764;7.184;2022-08-01T07:47:51;5.68;;;4.30;;
8656;SDS011;4366;50.764;7.184;2022-08-01T07:52:53;4.85;;;3.58;;
8656;SDS011;4366;50.764;7.184;2022-08-01T07:57:54;4.00;;;3.60;;
8656;SDS011;4366;50.764;7.184;2022-08-01T08:02:56;5.65;;;3.80;;
8656;SDS011;4366;50.764;7.184;2022-08-01T08:08:00;4.60;;;3.90;;
8656;SDS011;4366;50.764;7.184;2022-08-01T08:13:15;6.63;;;4.43;;
8656;SDS011;4366;50.764;7.184;2022-08-01T08:18:18;5.70;;;4.18;;
8656;SDS011;4366;50.764;7.184;2022-08-01T08:23:20;6.70;;;4.45;;
8656;SDS011;4366;50.764;7.184;2022-08-01T08:28:43;5.97;;;4.50;;
8656;SDS011;4366;50.764;7.184;2022-08-01T08:33:45;6.15;;;4.65;;
8656;SDS011;4366;50.764;7.184;2022-08-01T08:38:47;5.35;;;4.28;;
8656;SDS011;4366;50.764;7.184;2022-08-01T08:43:48;4.25;;;3.85;;
8656;SDS011;4366;50.764;7.184;2022-08-01T08:48:50;4.68;;;4.28;;
8656;SDS011;4366;50.764;7.184;2022-08-01T08:53:54;4.45;;;4.05;;
8656;SDS011;4366;50.764;7.184;2022-08-01T08:58:56;4.35;;;3.95;;
8656;SDS011;4366;50.764;7.184;2022-08-01T09:03:58;5.15;;;4.00;;
8656;SDS011;4366;50.764;7.184;2022-08-01T09:09:00;4.50;;;4.10;;
8656;SDS011;4366;50.764;7.184;2022-08-01T09:14:03;4.22;;;3.83;;
8656;SDS011;4366;50.764;7.184;2022-08-01T09:19:19;5.25;;;4.75;;
8656;SDS011;4366;50.764;7.184;2022-08-01T09:24:41;6.15;;;5.10;;
8656;SDS011;4366;50.764;7.184;2022-08-01T09:29:42;5.43;;;4.50;;
8656;SDS011;4366;50.764;7.184;2022-08-01T09:34:50;4.32;;;3.92;;
8656;SDS011;4366;50.764;7.184;2022-08-01T09:39:54;4.60;;;4.20;;
8656;SDS011;4366;50.764;7.184;2022-08-01T09:44:56;4.45;;;3.70;;
8656;SDS011;4366;50.764;7.184;2022-08-01T09:49:58;4.00;;;3.70;;
8656;SDS011;4366;50.764;7.184;2022-08-01T09:55:02;3.80;;;3.50;;
8656;SDS011;4366;50.764;7.184;2022-08-01T10:00:06;3.88;;;3.58;;
8656;SDS011;4366;50.764;7.184;2022-08-01T10:05:38;3.70;;;3.40;;
8656;SDS011;4366;50.764;7.184;2022-08-01T10:11:04;3.72;;;3.08;;
8656;SDS011;4366;50.764;7.184;2022-08-01T10:16:09;3.17;;;2.85;;
8656;SDS011;4366;50.764;7.184;2022-08-01T10:21:11;3.75;;;3.13;;
8656;SDS011;4366;50.764;7.184;2022-08-01T10:26:13;2.90;;;2.70;;
8656;SDS011;4366;50.764;7.184;2022-08-01T10:31:16;3.38;;;3.08;;
8656;SDS011;4366;50.764;7.184;2022-08-01T10:36:30;3.33;;;2.78;;
8656;SDS011;4366;50.764;7.184;2022-08-01T10:41:33;3.20;;;2.90;;
8656;SDS011;4366;50.764;7.184;2022-08-01T10:46:39;3.08;;;2.88;;
8656;SDS011;4366;50.764;7.184;2022-08-01T10:51:46;3.17;;;2.88;;
8656;SDS011;4366;50.764;7.184;2022-08-01T10:56:57;3.38;;;3.08;;
8656;SDS011;4366;50.764;7.184;2022-08-01T11:02:02;4.07;;;2.70;;
8656;SDS011;4366;50.764;7.184;2022-08-01T11:07:06;3.38;;;2.70;;
8656;SDS011;4366;50.764;7.184;2022-08-01T11:12:11;2.83;;;2.58;;
8656;SDS011;4366;50.764;7.184;2022-08-01T11:28:32;2.20;;;2.10;;
8656;SDS011;4366;50.764;7.184;2022-08-01T11:49:46;2.53;;;2.33;;
8656;SDS011;4366;50.764;7.184;2022-08-01T11:55:04;2.38;;;2.17;;
8656;SDS011;4366;50.764;7.184;2022-08-01T12:00:12;2.65;;;2.45;;
8656;SDS011;4366;50.764;7.184;2022-08-01T12:05:17;2.85;;;2.60;;
8656;SDS011;4366;50.764;7.184;2022-08-01T12:10:29;2.88;;;2.67;;
8656;SDS011;4366;50.764;7.184;2022-08-01T12:15:47;2.47;;;2.35;;
8656;SDS011;4366;50.764;7.184;2022-08-01T12:20:59;2.33;;;2.15;;
8656;SDS011;4366;50.764;7.184;2022-08-01T12:26:05;2.00;;;1.90;;
8656;SDS011;4366;50.764;7.184;2022-08-01T12:31:07;2.88;;;2.38;;
8656;SDS011;4366;50.764;7.184;2022-08-01T12:36:09;2.92;;;2.28;;
8656;SDS011;4366;50.764;7.184;2022-08-01T12:41:15;2.85;;;2.65;;
8656;SDS011;4366;50.764;7.184;2022-08-01T12:46:17;2.90;;;2.33;;
8656;SDS011;4366;50.764;7.184;2022-08-01T12:51:18;2.97;;;2.72;;
8656;SDS011;4366;50.764;7.184;2022-08-01T12:56:22;2.22;;;2.03;;
8656;SDS011;4366;50.764;7.184;2022-08-01T13:01:32;4.45;;;2.30;;
8656;SDS011;4366;50.764;7.184;2022-08-01T13:06:34;2.28;;;2.10;;
8656;SDS011;4366;50.764;7.184;2022-08-01T13:11:36;2.03;;;1.92;;
8656;SDS011;4366;50.764;7.184;2022-08-01T13:16:58;2.50;;;2.30;;
8656;SDS011;4366;50.764;7.184;2022-08-01T13:22:00;2.03;;;1.92;;
8656;SDS011;4366;50.764;7.184;2022-08-01T13:27:04;2.25;;;2.05;;
8656;SDS011;4366;50.764;7.184;2022-08-01T13:32:15;2.28;;;2.10;;
8656;SDS011;4366;50.764;7.184;2022-08-01T13:37:30;1.88;;;1.77;;
8656;SDS011;4366;50.764;7.184;2022-08-01T13:42:32;2.30;;;2.10;;
8656;SDS011;4366;50.764;7.184;2022-08-01T13:47:34;1.90;;;1.80;;
8656;SDS011;4366;50.764;7.184;2022-08-01T13:52:36;2.20;;;2.10;;
8656;SDS011;4366;50.764;7.184;2022-08-01T13:57:37;2.30;;;2.10;;
8656;SDS011;4366;50.764;7.184;2022-08-01T14:02:39;2.10;;;2.00;;
8656;SDS011;4366;50.764;7.184;2022-08-01T14:07:41;2.22;;;2.03;;
8656;SDS011;4366;50.764;7.184;2022-08-01T14:12:48;2.00;;;1.90;;
8656;SDS011;4366;50.764;7.184;2022-08-01T14:17:51;2.40;;;2.20;;
8656;SDS011;4366;50.764;7.184;2022-08-01T14:22:52;3.22;;;2.20;;
8656;SDS011;4366;50.764;7.184;2022-08-01T14:27:54;2.42;;;2.00;;
8656;SDS011;4366;50.764;7.184;2022-08-01T14:32:56;4.35;;;1.98;;
8656;SDS011;4366;50.764;7.184;2022-08-01T14:37:58;2.15;;;2.00;;
8656;SDS011;4366;50.764;7.184;2022-08-01T14:43:00;2.13;;;2.00;;
8656;SDS011;4366;50.764;7.184;2022-08-01T14:48:03;1.83;;;1.70;;
8656;SDS011;4366;50.764;7.184;2022-08-01T14:53:04;3.13;;;1.60;;
8656;SDS011;4366;50.764;7.184;2022-08-01T14:58:06;1.88;;;1.77;;
8656;SDS011;4366;50.764;7.184;2022-08-01T15:03:09;2.55;;;1.70;;
8656;SDS011;4366;50.764;7.184;2022-08-01T15:08:11;1.48;;;1.40;;
8656;SDS011;4366;50.764;7.184;2022-08-01T15:13:12;1.88;;;1.70;;
8656;SDS011;4366;50.764;7.184;2022-08-01T15:18:17;1.35;;;1.25;;
8656;SDS011;4366;50.764;7.184;2022-08-01T15:23:19;1.30;;;1.15;;
8656;SDS011;4366;50.764;7.184;2022-08-01T15:28:20;1.65;;;1.45;;
8656;SDS011;4366;50.764;7.184;2022-08-01T15:33:22;1.60;;;1.50;;
8656;SDS011;4366;50.764;7.184;2022-08-01T15:38:24;1.45;;;1.35;;
8656;SDS011;4366;50.764;7.184;2022-08-01T15:43:26;1.40;;;1.33;;
8656;SDS011;4366;50.764;7.184;2022-08-01T15:48:28;1.48;;;1.30;;
8656;SDS011;4366;50.764;7.184;2022-08-01T15:53:29;1.30;;;1.30;;
8656;SDS011;4366;50.764;7.184;2022-08-01T15:58:31;1.92;;;1.50;;
8656;SDS011;4366;50.764;7.184;2022-08-01T16:03:33;1.23;;;1.23;;
8656;SDS011;4366;50.764;7.184;2022-08-01T16:08:35;1.60;;;1.50;;
8656;SDS011;4366;50.764;7.184;2022-08-01T16:13:37;0.90;;;0.90;;
8656;SDS011;4366;50.764;7.184;2022-08-01T16:18:38;1.00;;;1.00;;
8656;SDS011;4366;50.764;7.184;2022-08-01T16:23:40;2.42;;;1.20;;
8656;SDS011;4366;50.764;7.184;2022-08-01T16:28:42;1.35;;;1.27;;
8656;SDS011;4366;50.764;7.184;2022-08-01T16:33:48;1.30;;;1.25;;
8656;SDS011;4366;50.764;7.184;2022-08-01T16:38:57;2.20;;;2.00;;
8656;SDS011;4366;50.764;7.184;2022-08-01T16:43:58;2.03;;;1.42;;
8656;SDS011;4366;50.764;7.184;2022-08-01T16:49:00;1.10;;;1.10;;
8656;SDS011;4366;50.764;7.184;2022-08-01T16:54:03;1.40;;;1.30;;
8656;SDS011;4366;50.764;7.184;2022-08-01T16:59:25;1.40;;;1.30;;
8656;SDS011;4366;50.764;7.184;2022-08-01T17:04:27;1.70;;;1.60;;
8656;SDS011;4366;50.764;7.184;2022-08-01T17:09:30;1.50;;;1.40;;
8656;SDS011;4366;50.764;7.184;2022-08-01T17:14:31;1.60;;;1.50;;
8656;SDS011;4366;50.764;7.184;2022-08-01T17:19:34;2.35;;;2.25;;
8656;SDS011;4366;50.764;7.184;2022-08-01T17:24:35;1.50;;;1.50;;
8656;SDS011;4366;50.764;7.184;2022-08-01T17:29:37;1.52;;;1.42;;
8656;SDS011;4366;50.764;7.184;2022-08-01T17:34:44;1.55;;;1.55;;
8656;SDS011;4366;50.764;7.184;2022-08-01T17:39:46;1.50;;;1.50;;
8656;SDS011;4366;50.764;7.184;2022-08-01T17:44:48;1.55;;;1.48;;
8656;SDS011;4366;50.764;7.184;2022-08-01T17:49:54;2.25;;;1.60;;
8656;SDS011;4366;50.764;7.184;2022-08-01T17:54:57;1.83;;;1.73;;
8656;SDS011;4366;50.764;7.184;2022-08-01T17:59:59;1.95;;;1.77;;
8656;SDS011;4366;50.764;7.184;2022-08-01T18:05:00;1.92;;;1.83;;
8656;SDS011;4366;50.764;7.184;2022-08-01T18:10:05;2.03;;;1.85;;
8656;SDS011;4366;50.764;7.184;2022-08-01T18:15:12;2.28;;;1.83;;
8656;SDS011;4366;50.764;7.184;2022-08-01T18:20:15;2.00;;;1.90;;
8656;SDS011;4366;50.764;7.184;2022-08-01T18:25:17;1.92;;;1.83;;
8656;SDS011;4366;50.764;7.184;2022-08-01T18:30:19;2.10;;;2.00;;
8656;SDS011;4366;50.764;7.184;2022-08-01T18:35:21;1.67;;;1.67;;
8656;SDS011;4366;50.764;7.184;2022-08-01T18:40:33;2.33;;;2.13;;
8656;SDS011;4366;50.764;7.184;2022-08-01T18:45:35;2.00;;;1.90;;
8656;SDS011;4366;50.764;7.184;2022-08-01T18:50:43;2.35;;;2.13;;
8656;SDS011;4366;50.764;7.184;2022-08-01T18:55:44;2.50;;;2.30;;
8656;SDS011;4366;50.764;7.184;2022-08-01T19:00:46;2.30;;;2.13;;
8656;SDS011;4366;50.764;7.184;2022-08-01T19:05:47;2.30;;;2.20;;
8656;SDS011;4366;50.764;7.184;2022-08-01T19:10:49;2.13;;;2.03;;
8656;SDS011;4366;50.764;7.184;2022-08-01T19:15:51;2.58;;;2.33;;
8656;SDS011;4366;50.764;7.184;2022-08-01T19:20:52;2.25;;;2.15;;
8656;SDS011;4366;50.764;7.184;2022-08-01T19:25:55;2.50;;;2.40;;
8656;SDS011;4366;50.764;7.184;2022-08-01T19:30:57;2.40;;;2.28;;
8656;SDS011;4366;50.764;7.184;2022-08-01T19:36:00;2.20;;;2.10;;
8656;SDS011;4366;50.764;7.184;2022-08-01T19:41:02;2.38;;;2.28;;
8656;SDS011;4366;50.764;7.184;2022-08-01T19:46:04;2.50;;;2.30;;
8656;SDS011;4366;50.764;7.184;2022-08-01T19:51:18;2.33;;;2.22;;
8656;SDS011;4366;50.764;7.184;2022-08-01T19:56:24;2.30;;;2.10;;
8656;SDS011;4366;50.764;7.184;2022-08-01T20:01:26;2.30;;;2.20;;
8656;SDS011;4366;50.764;7.184;2022-08-01T20:06:28;2.20;;;2.10;;
8656;SDS011;4366;50.764;7.184;2022-08-01T20:11:30;2.38;;;2.17;;
8656;SDS011;4366;50.764;7.184;2022-08-01T20:16:32;2.30;;;2.10;;
8656;SDS011;4366;50.764;7.184;2022-08-01T20:21:34;2.15;;;1.92;;
8656;SDS011;4366;50.764;7.184;2022-08-01T20:26:36;1.90;;;1.80;;
8656;SDS011;4366;50.764;7.184;2022-08-01T20:31:38;2.28;;;2.17;;
8656;SDS011;4366;50.764;7.184;2022-08-01T20:36:44;3.03;;;2.20;;
8656;SDS011;4366;50.764;7.184;2022-08-01T20:41:57;2.40;;;2.20;;
8656;SDS011;4366;50.764;7.184;2022-08-01T20:47:02;2.33;;;2.10;;
8656;SDS011;4366;50.764;7.184;2022-08-01T20:52:08;2.40;;;2.20;;
8656;SDS011;4366;50.764;7.184;2022-08-01T20:57:15;2.50;;;2.30;;
8656;SDS011;4366;50.764;7.184;2022-08-01T21:02:29;2.00;;;1.90;;
8656;SDS011;4366;50.764;7.184;2022-08-01T21:07:44;2.37;;;2.27;;
8656;SDS011;4366;50.764;7.184;2022-08-01T21:12:58;2.80;;;2.60;;
8656;SDS011;4366;50.764;7.184;2022-08-01T21:18:11;2.97;;;2.67;;
8656;SDS011;4366;50.764;7.184;2022-08-01T21:28:27;2.63;;;2.53;;
8656;SDS011;4366;50.764;7.184;2022-08-01T21:33:28;2.80;;;2.60;;
8656;SDS011;4366;50.764;7.184;2022-08-01T21:38:30;2.70;;;2.50;;
8656;SDS011;4366;50.764;7.184;2022-08-01T21:43:34;3.40;;;2.70;;
8656;SDS011;4366;50.764;7.184;2022-08-01T21:48:36;2.80;;;2.70;;
8656;SDS011;4366;50.764;7.184;2022-08-01T21:53:42;2.50;;;2.40;;
8656;SDS011;4366;50.764;7.184;2022-08-01T21:58:51;2.87;;;2.67;;
8656;SDS011;4366;50.764;7.184;2022-08-01T22:04:00;3.00;;;2.80;;
8656;SDS011;4366;50.764;7.184;2022-08-01T22:09:03;3.60;;;2.87;;
8656;SDS011;4366;50.764;7.184;2022-08-01T22:14:06;3.13;;;2.93;;
8656;SDS011;4366;50.764;7.184;2022-08-01T22:19:09;2.70;;;2.53;;
8656;SDS011;4366;50.764;7.184;2022-08-01T22:24:31;2.80;;;2.60;;
8656;SDS011;4366;50.764;7.184;2022-08-01T22:29:33;3.07;;;2.87;;
8656;SDS011;4366;50.764;7.184;2022-08-01T22:34:35;2.97;;;2.70;;
8656;SDS011;4366;50.764;7.184;2022-08-01T22:39:36;3.40;;;2.70;;
8656;SDS011;4366;50.764;7.184;2022-08-01T22:44:57;3.00;;;2.80;;
8656;SDS011;4366;50.764;7.184;2022-08-01T22:50:04;2.83;;;2.63;;
8656;SDS011;4366;50.764;7.184;2022-08-01T22:55:07;2.87;;;2.67;;
8656;SDS011;4366;50.764;7.184;2022-08-01T23:00:10;3.10;;;2.90;;
8656;SDS011;4366;50.764;7.184;2022-08-01T23:05:13;3.20;;;2.53;;
8656;SDS011;4366;50.764;7.184;2022-08-01T23:10:21;2.90;;;2.70;;
8656;SDS011;4366;50.764;7.184;2022-08-01T23:15:24;2.70;;;2.50;;
8656;SDS011;4366;50.764;7.184;2022-08-01T23:20:26;3.33;;;2.50;;
8656;SDS011;4366;50.764;7.184;2022-08-01T23:25:28;2.83;;;2.63;;
8656;SDS011;4366;50.764;7.184;2022-08-01T23:30:30;2.53;;;2.37;;
8656;SDS011;4366;50.764;7.184;2022-08-01T23:35:33;2.67;;;2.47;;
8656;SDS011;4366;50.764;7.184;2022-08-01T23:40:39;2.50;;;2.30;;
8656;SDS011;4366;50.764;7.184;2022-08-01T23:45:41;2.50;;;2.30;;
8656;SDS011;4366;50.764;7.184;2022-08-01T23:51:03;2.43;;;2.23;;
8656;SDS011;4366;50.764;7.184;2022-08-01T23:56:05;2.27;;;2.17;;
